Moran, Texas
Current Conditions -  °F | °C
As of 2:55 PM on Thursday 27 Nov 2014 (Local Time) from KBKD Reporting Station
Haze Haze  
Wind Chill: 61°   Ceiling: Unl
Heat Index: 61°   Visibility: 5mi
Dew Point: 26°   Wind: 6mph
Humidity: 26%   Direction: 190°S
Pressure: 30.39"   Gusts: NA
Location:  32.55°N, 99.17°W
Report Text: KBKD 272055Z AUTO 19005KT 5SM HZ CLR 16/M03 A3039 RMK AO2 T01631035
Loading
Personal Weather Stations






























Interactive Weather Map New forecast layout! Learn more

10-Day Weather Forecast

Advertisements
Track Severe Weather on mobile